Time;durP1;ratioP1;P1;durP2;ratioP2;P2;SDS_P1;SDS_P2;PMS_P1;PMS_P2;Temp;Humidity;BMP_temperature;BMP_pressure;BME280_temperature;BME280_humidity;BME280_pressure;Samples;Min_cycle;Max_cycle;Signal;HPM_P1;HPM_P2
2023/01/02 00:00:51;;;;;;;70.30;32.25;;;;;;;5.23;75.99;101210.78;3162898;28;20055;-69
2023/01/02 00:02:23;;;;;;;72.55;33.00;;;;;;;5.12;76.21;101196.13;3165860;28;20048;-69
2023/01/02 00:03:55;;;;;;;66.85;31.65;;;;;;;5.15;76.27;101206.47;3169709;28;20134;-69
2023/01/02 00:05:26;;;;;;;71.50;31.98;;;;;;;5.14;76.23;101202.13;3169581;28;20608;-70
2023/01/02 00:06:58;;;;;;;69.40;30.70;;;;;;;5.19;76.19;101210.75;3159912;28;20055;-69
2023/01/02 00:08:30;;;;;;;64.70;30.00;;;;;;;5.20;76.25;101202.13;3162998;28;20047;-69
2023/01/02 00:10:04;;;;;;;57.38;29.35;;;;;;;4.79;76.09;101147.09;3169732;28;20056;-69
2023/01/02 00:11:36;;;;;;;63.88;30.60;;;;;;;5.00;76.22;101178.94;3164915;28;20047;-68
2023/01/02 00:13:07;;;;;;;63.08;30.13;;;;;;;5.03;76.24;101184.09;3156850;28;20048;-70
2023/01/02 00:14:39;;;;;;;62.15;29.80;;;;;;;5.18;76.15;101207.31;3159133;28;20554;-70
2023/01/02 00:16:11;;;;;;;65.95;29.08;;;;;;;5.08;75.97;101192.66;3164882;28;20040;-69
2023/01/02 00:17:43;;;;;;;65.75;28.90;;;;;;;5.23;76.06;101212.47;3168231;28;20063;-69
2023/01/02 00:19:15;;;;;;;60.67;28.52;;;;;;;5.17;75.97;101207.31;3157253;28;20163;-68
2023/01/02 00:20:47;;;;;;;64.90;29.10;;;;;;;5.23;76.06;101218.53;3169954;28;20051;-69
2023/01/02 00:22:19;;;;;;;56.65;28.17;;;;;;;5.23;76.06;101221.09;3169601;28;20043;-68
2023/01/02 00:23:50;;;;;;;56.25;28.42;;;;;;;5.24;76.08;101219.38;3157563;28;20097;-68
2023/01/02 00:25:24;;;;;;;53.88;26.42;;;;;;;5.23;76.08;101218.53;3168318;28;20131;-69
2023/01/02 00:26:55;;;;;;;56.05;27.88;;;;;;;5.21;76.07;101221.97;3158876;28;20105;-69
2023/01/02 00:28:28;;;;;;;56.20;27.30;;;;;;;5.23;76.10;101220.22;3156862;28;20067;-69
2023/01/02 00:30:00;;;;;;;60.88;27.80;;;;;;;5.23;75.98;101226.25;3166148;28;20040;-69
2023/01/02 00:31:33;;;;;;;66.72;28.67;;;;;;;5.19;75.94;101219.34;3153203;28;20051;-69
2023/01/02 00:33:05;;;;;;;58.35;28.67;;;;;;;5.25;75.97;101229.69;3158330;28;20472;-69
2023/01/02 00:34:37;;;;;;;60.20;29.55;;;;;;;5.27;75.73;101226.25;3157021;28;20067;-69
2023/01/02 00:36:11;;;;;;;62.03;28.77;;;;;;;5.27;75.88;101229.69;3163009;28;20048;-68
2023/01/02 00:37:42;;;;;;;61.20;28.90;;;;;;;5.15;75.74;101201.31;3170505;28;20494;-69
2023/01/02 00:39:14;;;;;;;58.63;27.90;;;;;;;4.57;75.28;101109.22;3166966;28;20055;-69
2023/01/02 00:40:48;;;;;;;57.28;27.88;;;;;;;5.31;75.56;101227.97;3159357;28;20108;-69
2023/01/02 00:42:19;;;;;;;53.97;27.85;;;;;;;5.25;75.61;101219.34;3159262;28;20052;-68
2023/01/02 00:43:51;;;;;;;56.90;27.55;;;;;;;5.32;75.50;101240.00;3162416;28;20048;-69
2023/01/02 00:45:23;;;;;;;56.90;27.08;;;;;;;5.32;75.47;101229.69;3167564;28;20088;-69
2023/01/02 00:46:55;;;;;;;53.67;26.13;;;;;;;5.32;75.39;101237.44;3172192;28;20436;-69
2023/01/02 00:48:27;;;;;;;58.15;26.95;;;;;;;5.34;75.32;101238.31;3172072;28;20116;-69
2023/01/02 00:49:59;;;;;;;53.75;25.80;;;;;;;5.30;75.23;101227.13;3172014;28;20051;-69
2023/01/02 00:51:31;;;;;;;62.53;27.38;;;;;;;5.34;75.08;101230.53;3159011;28;20056;-69
2023/01/02 00:53:03;;;;;;;55.95;26.17;;;;;;;5.34;75.06;101225.38;3159288;28;20048;-69
2023/01/02 00:54:34;;;;;;;52.85;26.55;;;;;;;5.32;75.06;101227.94;3159166;28;20055;-69
2023/01/02 00:56:08;;;;;;;55.70;27.33;;;;;;;5.33;75.05;101232.28;3159057;28;20535;-69
2023/01/02 00:57:39;;;;;;;;;;;;;;;5.25;75.06;101231.41;3159662;28;20047;-69
2023/01/02 00:59:10;;;;;;;51.53;26.00;;;;;;;5.24;75.09;101221.97;3150506;28;19920;-69
2023/01/02 01:00:42;;;;;;;57.28;27.33;;;;;;;5.21;75.14;101222.81;3159478;28;20052;-69
2023/01/02 01:02:14;;;;;;;56.45;27.52;;;;;;;5.26;75.19;101225.38;3159167;28;20085;-69
2023/01/02 01:03:46;;;;;;;58.67;26.75;;;;;;;5.20;75.06;101221.06;3153455;28;20051;-69
2023/01/02 01:05:17;;;;;;;56.10;25.92;;;;;;;5.27;75.10;101221.94;3162608;28;20040;-68
2023/01/02 01:06:49;;;;;;;55.22;27.23;;;;;;;5.27;74.95;101232.28;3165671;28;20048;-69
2023/01/02 01:08:21;;;;;;;58.63;26.33;;;;;;;5.27;75.13;101223.69;3158987;28;20051;-69
2023/01/02 01:09:53;;;;;;;50.38;26.02;;;;;;;5.25;74.97;101224.53;3158871;28;20048;-69
2023/01/02 01:11:26;;;;;;;52.03;25.30;;;;;;;5.25;75.10;101227.09;3162605;28;20050;-69
2023/01/02 01:12:58;;;;;;;57.35;25.38;;;;;;;5.20;75.25;101223.66;3171623;28;20482;-69
2023/01/02 01:14:29;;;;;;;50.22;22.63;;;;;;;5.15;75.27;101217.66;3166163;28;20053;-69
2023/01/02 01:16:04;;;;;;;52.58;24.50;;;;;;;5.12;75.46;101221.97;3171647;28;20051;-68
2023/01/02 01:17:36;;;;;;;45.30;23.83;;;;;;;5.04;75.65;101216.78;3171844;28;20427;-69
2023/01/02 01:19:08;;;;;;;47.50;23.98;;;;;;;5.00;76.00;101226.25;3171736;28;20054;-69
2023/01/02 01:20:40;;;;;;;48.47;24.02;;;;;;;4.97;75.98;101212.50;3171715;28;20478;-68
2023/01/02 01:22:12;;;;;;;47.45;24.13;;;;;;;4.95;76.08;101214.19;3159114;28;20132;-69
2023/01/02 01:23:44;;;;;;;54.90;24.25;;;;;;;4.94;76.10;101218.50;3159025;28;20048;-69
2023/01/02 01:25:16;;;;;;;51.30;25.67;;;;;;;4.93;76.14;101213.34;3169670;28;20055;-69
2023/01/02 01:26:50;;;;;;;51.53;24.30;;;;;;;4.91;76.23;101212.47;3161671;28;20052;-69
2023/01/02 01:28:21;;;;;;;47.92;24.58;;;;;;;4.86;76.22;101201.28;3158524;28;20099;-69
2023/01/02 01:29:53;;;;;;;52.03;24.50;;;;;;;4.88;76.35;101209.88;3167502;28;20051;-69
2023/01/02 01:31:25;;;;;;;52.42;24.38;;;;;;;4.86;76.63;101209.03;3171349;28;20043;-69
2023/01/02 01:32:58;;;;;;;50.78;24.70;;;;;;;4.85;76.47;101202.13;3171356;28;20039;-69
2023/01/02 01:34:30;;;;;;;49.13;24.38;;;;;;;4.79;76.43;101187.50;3164058;28;20051;-69
2023/01/02 01:36:03;;;;;;;49.05;25.15;;;;;;;4.81;76.36;101185.78;3164746;28;20043;-69
2023/01/02 01:37:34;;;;;;;49.85;24.75;;;;;;;4.85;76.30;101194.38;3161599;28;20121;-69
2023/01/02 01:39:05;;;;;;;48.80;23.92;;;;;;;4.85;76.24;101194.38;3161586;28;20071;-69
2023/01/02 01:40:38;;;;;;;49.92;24.63;;;;;;;4.82;76.30;101181.47;3162204;28;20619;-69
2023/01/02 01:42:13;;;;;;;49.10;23.05;;;;;;;4.88;76.15;101186.66;3168390;28;20052;-69
2023/01/02 01:43:48;;;;;;;49.25;23.35;;;;;;;3.96;76.03;101042.97;3158514;28;20153;-69
2023/01/02 01:45:20;;;;;;;50.90;24.65;;;;;;;4.89;75.90;101189.25;3158564;28;20056;-69
2023/01/02 01:46:52;;;;;;;51.95;24.13;;;;;;;4.90;75.88;101182.34;3160366;28;20048;-69
2023/01/02 01:48:24;;;;;;;50.60;24.63;;;;;;;4.90;75.74;101179.78;3161705;28;20048;-69
2023/01/02 01:50:00;;;;;;;49.65;24.98;;;;;;;4.90;75.75;101177.19;3158034;28;20052;-69
2023/01/02 01:51:37;;;;;;;47.40;23.58;;;;;;;4.91;75.62;101182.38;3161810;28;20052;-69
2023/01/02 01:53:14;;;;;;;45.10;23.13;;;;;;;4.90;75.55;101166.88;3145956;28;20488;-69
2023/01/02 01:54:51;;;;;;;52.65;25.77;;;;;;;4.89;75.54;101172.91;3171366;28;20093;-69
2023/01/02 01:56:23;;;;;;;53.58;24.77;;;;;;;4.85;75.40;101163.41;3170517;28;20237;-69
2023/01/02 01:57:59;;;;;;;47.30;24.00;;;;;;;4.18;75.24;101055.91;3167955;28;20113;-69
2023/01/02 01:59:31;;;;;;;47.25;24.42;;;;;;;4.88;75.45;101171.16;3145373;28;20441;-68
2023/01/02 02:01:04;;;;;;;47.90;23.88;;;;;;;4.84;75.35;101159.97;3157899;28;20445;-68
2023/01/02 02:02:36;;;;;;;48.03;23.48;;;;;;;4.85;75.29;101160.84;3169504;28;20135;-68
2023/01/02 02:04:09;;;;;;;45.53;23.27;;;;;;;4.84;75.28;101159.97;3159896;28;20048;-68
2023/01/02 02:05:43;;;;;;;51.28;25.70;;;;;;;4.87;75.17;101167.72;3159122;28;20306;-69
2023/01/02 02:07:16;;;;;;;48.35;25.00;;;;;;;4.76;75.08;101157.41;3157507;28;20403;-69
2023/01/02 02:08:55;;;;;;;51.70;25.20;;;;;;;4.86;75.07;101166.00;3167663;28;20051;-69
2023/01/02 02:10:26;;;;;;;47.35;25.17;;;;;;;4.77;74.91;101158.28;3170923;28;20100;-69
2023/01/02 02:11:57;;;;;;;46.42;24.73;;;;;;;4.84;74.97;101169.44;3162471;28;20537;-69
2023/01/02 02:13:32;;;;;;;51.83;24.83;;;;;;;4.84;74.93;101174.59;3158007;28;20093;-68
2023/01/02 02:15:06;;;;;;;50.28;24.75;;;;;;;4.64;75.03;101136.75;3165460;28;20475;-69
2023/01/02 02:16:45;;;;;;;51.42;24.75;;;;;;;4.77;74.88;101158.28;3164923;28;20055;-69
2023/01/02 02:18:34;;;;;;;51.78;25.15;;;;;;;4.79;74.80;101165.16;3158169;28;20113;-70
2023/01/02 02:20:24;;;;;;;56.97;24.40;;;;;;;4.77;74.83;101164.28;3158339;28;20044;-68
2023/01/02 02:22:19;;;;;;;54.53;24.88;;;;;;;4.76;74.74;101164.28;3158229;28;20487;-68
2023/01/02 02:24:13;;;;;;;48.70;22.65;;;;;;;4.72;74.80;101166.00;3170168;28;20039;-68
2023/01/02 02:26:19;;;;;;;46.35;23.65;;;;;;;4.68;74.77;101166.88;3162544;28;20044;-68
2023/01/02 02:28:10;;;;;;;51.53;23.45;;;;;;;4.68;74.81;101166.88;3157991;28;20075;-68
2023/01/02 02:30:08;;;;;;;53.15;25.02;;;;;;;4.65;74.68;101174.59;3157731;28;20059;-69
2023/01/02 02:31:47;;;;;;;47.67;24.45;;;;;;;4.64;74.81;101170.28;3157805;28;20420;-68
2023/01/02 02:33:33;;;;;;;51.58;23.80;;;;;;;4.60;74.61;101157.41;3157884;28;20079;-69
2023/01/02 02:35:13;;;;;;;52.53;25.17;;;;;;;4.63;74.76;101167.72;3158001;28;20044;-69
2023/01/02 02:36:54;;;;;;;49.55;24.13;;;;;;;4.47;74.75;101147.06;3157870;28;20055;-69
2023/01/02 02:38:39;;;;;;;49.53;23.70;;;;;;;4.63;74.68;101172.88;3169998;28;20083;-69
2023/01/02 02:40:19;;;;;;;54.13;24.83;;;;;;;4.61;74.72;101172.88;3160349;28;20052;-69
2023/01/02 02:41:56;;;;;;;57.03;25.45;;;;;;;4.61;74.89;101166.84;3158144;28;20047;-68
2023/01/02 02:43:40;;;;;;;51.13;25.17;;;;;;;4.62;74.68;101166.88;3145660;28;20496;-68
2023/01/02 02:45:22;;;;;;;49.67;24.73;;;;;;;4.59;74.78;101158.25;3146605;28;20052;-69
2023/01/02 02:47:01;;;;;;;52.08;24.05;;;;;;;4.56;74.85;101151.38;3169204;28;20051;-69
2023/01/02 02:48:41;;;;;;;43.85;23.60;;;;;;;4.53;74.91;101149.66;3157846;28;20063;-69
2023/01/02 02:50:21;;;;;;;47.63;22.77;;;;;;;4.52;75.24;101149.63;3157976;28;20424;-69
2023/01/02 02:52:00;;;;;;;43.90;22.08;;;;;;;4.49;75.27;101147.91;3160141;28;20206;-68
2023/01/02 02:53:36;;;;;;;48.50;23.88;;;;;;;4.43;75.48;101144.47;3170625;28;20557;-68
2023/01/02 02:55:13;;;;;;;50.80;23.75;;;;;;;4.48;75.52;101148.78;3167053;28;20209;-69
2023/01/02 02:56:45;;;;;;;47.88;23.70;;;;;;;4.46;75.58;101144.47;3156767;28;20056;-69
2023/01/02 02:58:19;;;;;;;50.83;23.52;;;;;;;4.43;75.69;101139.31;3156776;28;20127;-69
2023/01/02 02:59:51;;;;;;;46.72;23.17;;;;;;;4.42;75.71;101132.44;3146269;28;20060;-69
2023/01/02 03:01:27;;;;;;;49.72;23.35;;;;;;;4.43;75.91;101139.31;3157613;28;20044;-69
2023/01/02 03:02:59;;;;;;;44.63;22.27;;;;;;;4.39;75.89;101135.00;3157296;28;20524;-69
2023/01/02 03:04:30;;;;;;;46.75;22.55;;;;;;;4.38;75.96;101133.28;3170419;28;20093;-69
2023/01/02 03:06:14;;;;;;;46.03;23.02;;;;;;;4.25;76.11;101115.19;3170261;28;20048;-69
2023/01/02 03:07:53;;;;;;;47.20;22.75;;;;;;;4.39;76.17;101147.91;3170705;28;20046;-69
2023/01/02 03:09:33;;;;;;;50.22;23.60;;;;;;;4.39;76.18;101142.75;3170059;28;20051;-68
2023/01/02 03:11:05;;;;;;;51.10;24.13;;;;;;;4.37;76.37;101141.88;3152082;28;20052;-69
2023/01/02 03:12:47;;;;;;;46.03;22.95;;;;;;;4.28;76.18;101122.09;3170255;28;20070;-68
2023/01/02 03:14:24;;;;;;;47.80;22.17;;;;;;;4.37;76.27;101136.72;3146732;28;20545;-70
2023/01/02 03:16:07;;;;;;;46.53;21.42;;;;;;;4.31;76.19;101138.41;3157697;28;20160;-69
2023/01/02 03:17:52;;;;;;;46.30;22.55;;;;;;;4.25;75.74;101137.56;3146457;28;20082;-69
2023/01/02 03:19:30;;;;;;;50.22;22.75;;;;;;;4.20;75.61;101141.84;3157439;28;20550;-70
2023/01/02 03:21:07;;;;;;;47.70;23.23;;;;;;;4.14;75.53;101140.13;3157419;28;20075;-69
2023/01/02 03:22:44;;;;;;;47.58;22.85;;;;;;;3.96;75.49;101114.28;3148269;28;20087;-69
2023/01/02 03:24:20;;;;;;;47.25;24.13;;;;;;;4.12;75.48;101143.56;3169948;28;20044;-68
2023/01/02 03:25:53;;;;;;;45.00;23.23;;;;;;;4.09;75.50;101136.66;3163655;28;20534;-69
2023/01/02 03:27:27;;;;;;;53.55;23.95;;;;;;;3.32;75.51;101020.47;3157896;28;20114;-69
2023/01/02 03:29:04;;;;;;;48.55;23.58;;;;;;;3.93;75.35;101127.16;3169413;28;20047;-68
2023/01/02 03:30:38;;;;;;;52.20;24.10;;;;;;;3.51;75.16;101070.31;3157819;28;20059;-68
2023/01/02 03:32:13;;;;;;;52.00;23.27;;;;;;;3.88;74.97;101140.03;3169890;28;20112;-70
2023/01/02 03:33:54;;;;;;;51.70;24.58;;;;;;;3.78;75.00;101131.38;3169980;28;20051;-69
2023/01/02 03:35:31;;;;;;;45.95;21.67;;;;;;;3.76;74.90;101143.44;3169962;28;20051;-70
2023/01/02 03:37:08;;;;;;;47.35;23.10;;;;;;;3.68;74.76;101133.94;3157059;28;20097;-69
2023/01/02 03:38:46;;;;;;;41.65;21.92;;;;;;;3.61;74.61;101138.22;3144849;28;20048;-69
2023/01/02 03:40:22;;;;;;;47.83;23.45;;;;;;;3.54;74.50;101142.44;3158520;28;20044;-69
2023/01/02 03:41:57;;;;;;;48.22;23.23;;;;;;;2.67;74.22;101014.13;3169794;28;20455;-69
2023/01/02 03:43:32;;;;;;;44.65;22.58;;;;;;;3.40;74.34;101144.97;3148889;28;20044;-69
2023/01/02 03:45:08;;;;;;;49.55;23.70;;;;;;;3.34;74.25;101146.63;3144625;28;20076;-69
2023/01/02 03:46:47;;;;;;;48.13;21.52;;;;;;;3.23;74.03;101133.72;3144820;28;20082;-69
2023/01/02 03:48:28;;;;;;;44.55;21.73;;;;;;;3.24;74.09;101153.44;3144543;28;20056;-69
2023/01/02 03:50:08;;;;;;;47.85;22.08;;;;;;;3.21;73.74;101147.41;3145280;28;20113;-69
2023/01/02 03:51:40;;;;;;;45.42;21.92;;;;;;;3.16;73.88;101145.66;3154464;28;20056;-69
2023/01/02 03:53:13;;;;;;;47.60;22.27;;;;;;;3.09;73.77;101138.75;3169902;28;20051;-68
2023/01/02 03:54:44;;;;;;;48.33;23.42;;;;;;;3.11;73.83;101152.50;3147897;28;20647;-69
2023/01/02 03:56:24;;;;;;;47.50;22.40;;;;;;;3.10;73.79;101150.75;3157208;28;20089;-70
2023/01/02 03:58:01;;;;;;;46.38;22.52;;;;;;;3.05;73.67;101154.19;3162450;28;20055;-69
2023/01/02 03:59:41;;;;;;;51.97;22.65;;;;;;;3.00;73.44;101155.84;3155313;28;20048;-69
2023/01/02 04:01:22;;;;;;;47.50;22.42;;;;;;;2.90;73.18;101148.06;3144794;28;20056;-69
2023/01/02 04:02:58;;;;;;;54.95;23.85;;;;;;;2.84;72.71;101160.88;3144967;28;20056;-69
2023/01/02 04:04:38;;;;;;;51.20;23.02;;;;;;;2.78;72.28;101162.50;3169899;28;20047;-70
2023/01/02 04:06:14;;;;;;;56.53;23.80;;;;;;;2.62;71.97;101171.81;3169425;28;20074;-69
2023/01/02 04:07:54;;;;;;;48.13;23.98;;;;;;;2.43;71.99;101173.38;3156946;28;20101;-68
2023/01/02 04:09:30;;;;;;;46.83;22.92;;;;;;;2.27;71.76;101175.75;3156905;28;20440;-68
2023/01/02 04:11:04;;;;;;;44.88;22.45;;;;;;;2.09;71.69;101175.53;3157313;28;20059;-69
2023/01/02 04:12:39;;;;;;;53.53;22.38;;;;;;;1.95;71.87;101184.78;3156781;28;20052;-69
2023/01/02 04:14:17;;;;;;;50.55;22.15;;;;;;;1.79;72.11;101186.31;3145288;28;20429;-69
2023/01/02 04:15:51;;;;;;;48.28;22.70;;;;;;;1.68;72.51;101177.59;3169296;28;20052;-69
2023/01/02 04:17:26;;;;;;;47.42;23.05;;;;;;;1.73;73.03;101181.97;3157463;28;20132;-70
2023/01/02 04:19:03;;;;;;;45.20;22.70;;;;;;;1.78;73.26;101179.47;3157205;28;20059;-69
2023/01/02 04:20:40;;;;;;;49.53;22.13;;;;;;;1.86;73.99;101177.84;3157207;28;20131;-69
2023/01/02 04:22:19;;;;;;;47.42;23.20;;;;;;;1.95;74.05;101189.94;3156892;28;20051;-69
2023/01/02 04:23:57;;;;;;;52.15;23.10;;;;;;;2.01;74.60;101172.03;3153475;28;20048;-68
2023/01/02 04:25:37;;;;;;;48.78;22.45;;;;;;;2.05;74.89;101174.66;3165284;28;20458;-68
2023/01/02 04:27:13;;;;;;;48.80;22.70;;;;;;;2.10;75.34;101179.88;3157075;28;20463;-69
2023/01/02 04:28:44;;;;;;;50.72;23.45;;;;;;;2.08;75.67;101167.84;3169199;28;20115;-68
2023/01/02 04:30:16;;;;;;;48.78;23.15;;;;;;;2.15;75.83;101177.31;3169614;28;20079;-68
2023/01/02 04:31:54;;;;;;;51.88;23.05;;;;;;;2.16;75.95;101172.22;3158601;28;20133;-68
2023/01/02 04:33:28;;;;;;;49.78;22.25;;;;;;;2.13;76.21;101166.16;3168026;28;20055;-70
2023/01/02 04:35:00;;;;;;;;;;;;;;;2.12;76.14;101173.00;3170108;28;20047;-67
2023/01/02 04:36:38;;;;;;;49.17;22.52;;;;;;;2.14;76.37;101167.91;3159168;28;19970;-69
2023/01/02 04:38:12;;;;;;;48.00;22.33;;;;;;;2.14;76.57;101166.19;3166114;28;20092;-68
2023/01/02 04:39:44;;;;;;;46.28;21.95;;;;;;;2.18;76.80;101165.38;3157072;28;20070;-68
2023/01/02 04:41:25;;;;;;;45.13;22.10;;;;;;;2.24;76.93;101167.16;3157043;28;20075;-68
2023/01/02 04:42:57;;;;;;;49.70;22.65;;;;;;;2.29;77.16;101162.94;3156810;28;20102;-68
2023/01/02 04:44:29;;;;;;;49.60;24.40;;;;;;;2.23;77.37;101145.72;3156721;28;20102;-70
2023/01/02 04:46:01;;;;;;;49.55;23.90;;;;;;;2.39;77.56;101157.03;3156808;28;20044;-70
2023/01/02 04:47:33;;;;;;;57.17;25.17;;;;;;;2.42;77.88;101156.19;3158555;28;20546;-69
2023/01/02 04:49:04;;;;;;;49.28;23.95;;;;;;;2.45;78.01;101156.22;3155245;28;20112;-68
2023/01/02 04:50:35;;;;;;;52.60;24.52;;;;;;;2.48;78.16;101162.28;3164707;28;20051;-68
2023/01/02 04:52:07;;;;;;;56.20;26.33;;;;;;;2.50;78.38;101150.28;3160640;28;20096;-68
2023/01/02 04:53:40;;;;;;;53.97;24.98;;;;;;;2.56;78.63;101158.91;3161840;28;20048;-70
2023/01/02 04:55:12;;;;;;;53.67;24.92;;;;;;;2.57;78.61;101160.63;3159000;28;20424;-69
2023/01/02 04:56:44;;;;;;;57.03;25.73;;;;;;;2.60;78.75;101158.94;3165698;28;20059;-68
2023/01/02 04:58:16;;;;;;;53.60;25.02;;;;;;;2.62;78.81;101157.25;3156183;28;20581;-68
2023/01/02 04:59:47;;;;;;;49.05;24.30;;;;;;;2.63;79.03;101160.66;3144601;28;20048;-69
2023/01/02 05:01:20;;;;;;;46.30;23.02;;;;;;;2.65;79.04;101161.56;3156909;28;20052;-69
2023/01/02 05:02:52;;;;;;;54.92;23.38;;;;;;;2.60;79.23;101155.50;3156798;28;20052;-69
2023/01/02 05:04:24;;;;;;;46.97;22.88;;;;;;;2.65;79.26;101156.41;3168795;28;20051;-69
2023/01/02 05:05:59;;;;;;;45.22;21.80;;;;;;;2.67;79.20;101154.72;3158103;28;20052;-70
2023/01/02 05:07:32;;;;;;;50.10;23.67;;;;;;;2.59;79.21;101146.94;3152340;28;20048;-69
2023/01/02 05:09:05;;;;;;;54.55;22.60;;;;;;;2.68;79.50;101159.00;3154421;28;20059;-69
2023/01/02 05:10:37;;;;;;;;;;;;;;;2.62;79.24;101157.25;3157384;28;20060;-70
2023/01/02 05:12:09;;;;;;;49.70;22.20;;;;;;;2.61;79.48;101154.69;3165854;28;19981;-69
2023/01/02 05:13:41;;;;;;;46.63;23.70;;;;;;;1.96;79.38;101040.09;3168165;28;20071;-69
2023/01/02 05:15:13;;;;;;;46.60;22.35;;;;;;;2.62;79.45;101151.25;3164490;28;20100;-69
2023/01/02 05:16:45;;;;;;;43.58;20.98;;;;;;;2.56;79.34;101143.47;3162604;28;20075;-69
2023/01/02 05:18:17;;;;;;;50.58;23.17;;;;;;;2.60;79.22;101148.63;3162768;28;20044;-69
2023/01/02 05:19:48;;;;;;;53.78;26.35;;;;;;;2.60;79.37;101153.78;3169518;28;20040;-69
2023/01/02 05:25:01;;;;;;;44.38;21.17;;;;;;;2.62;79.69;101157.25;3167231;28;20410;-69
2023/01/02 05:26:33;;;;;;;46.97;22.35;;;;;;;2.59;79.72;101148.66;3171639;28;20064;-69
2023/01/02 05:28:05;;;;;;;43.05;21.83;;;;;;;2.64;79.66;101155.56;3171263;28;20054;-69
2023/01/02 05:29:37;;;;;;;45.63;22.98;;;;;;;2.64;79.74;101152.13;3165327;28;20055;-69
2023/01/02 05:31:08;;;;;;;46.95;22.88;;;;;;;2.66;79.67;101158.13;3164376;28;20550;-69
2023/01/02 05:32:40;;;;;;;48.97;22.83;;;;;;;2.66;79.76;101152.97;3166731;28;20047;-69
2023/01/02 05:34:14;;;;;;;47.15;21.70;;;;;;;2.16;79.60;101081.38;3162172;28;20096;-69
2023/01/02 05:35:46;;;;;;;42.30;20.77;;;;;;;2.66;79.64;101155.56;3169576;28;20050;-69
2023/01/02 05:37:18;;;;;;;40.38;20.98;;;;;;;2.33;79.53;101102.97;3153753;28;20561;-69
2023/01/02 05:38:51;;;;;;;40.50;20.58;;;;;;;2.62;79.70;101143.53;3158605;28;20501;-69
2023/01/02 05:40:24;;;;;;;43.35;21.35;;;;;;;2.67;79.62;101160.72;3159739;28;20058;-70
2023/01/02 05:41:56;;;;;;;38.72;20.48;;;;;;;2.67;79.65;101165.00;3170848;28;20059;-68
2023/01/02 05:43:31;;;;;;;44.05;21.17;;;;;;;2.66;79.60;101168.41;3158813;28;20537;-69
2023/01/02 05:45:03;;;;;;;41.92;20.23;;;;;;;2.65;79.46;101167.56;3146277;28;20107;-68
2023/01/02 05:46:36;;;;;;;39.75;21.13;;;;;;;2.62;79.36;101172.69;3158090;28;20106;-68
2023/01/02 05:48:07;;;;;;;44.03;20.73;;;;;;;2.58;79.36;101168.38;3170566;28;20138;-69
2023/01/02 05:49:39;;;;;;;40.67;19.40;;;;;;;2.57;79.21;101170.91;3170423;28;20051;-69
2023/01/02 05:51:14;;;;;;;42.13;19.75;;;;;;;2.52;79.32;101159.72;3157883;28;20048;-67
2023/01/02 05:52:46;;;;;;;40.78;19.00;;;;;;;2.55;79.14;101167.47;3158490;28;20052;-69
2023/01/02 05:54:18;;;;;;;38.97;18.88;;;;;;;2.48;78.95;101154.56;3158687;28;20044;-68
2023/01/02 05:55:51;;;;;;;44.05;19.08;;;;;;;2.54;78.99;101163.16;3167124;28;20530;-68
2023/01/02 05:57:23;;;;;;;34.42;17.80;;;;;;;2.54;78.87;101170.88;3162077;28;20528;-70
2023/01/02 05:58:55;;;;;;;40.70;18.88;;;;;;;2.55;78.83;101163.19;3152184;28;20044;-69
2023/01/02 06:00:27;;;;;;;40.53;18.30;;;;;;;2.57;78.79;101164.03;3152538;28;20052;-70
2023/01/02 06:01:59;;;;;;;36.15;18.55;;;;;;;2.59;78.74;101157.22;3157202;28;20048;-69
2023/01/02 06:03:30;;;;;;;37.83;18.30;;;;;;;2.60;78.61;101165.78;3158409;28;20054;-70
2023/01/02 06:05:01;;;;;;;34.03;16.92;;;;;;;2.55;78.46;101154.63;3158767;28;20044;-70
2023/01/02 06:06:35;;;;;;;40.22;19.05;;;;;;;2.55;78.44;101149.47;3158103;28;20048;-68
2023/01/02 06:08:07;;;;;;;38.28;18.85;;;;;;;2.21;78.27;101097.72;3158350;28;20044;-69
2023/01/02 06:09:39;;;;;;;36.70;18.88;;;;;;;2.51;78.20;101148.56;3158291;28;20052;-70
2023/01/02 06:11:12;;;;;;;44.53;18.60;;;;;;;2.52;78.12;101162.31;3158513;28;20044;-70
2023/01/02 06:12:44;;;;;;;44.17;20.02;;;;;;;2.54;78.14;101165.72;3159365;28;20117;-70
2023/01/02 06:14:16;;;;;;;34.88;18.27;;;;;;;2.54;78.15;101170.88;3169276;28;20116;-69
2023/01/02 06:15:48;;;;;;;39.75;18.05;;;;;;;2.51;78.29;101161.41;3169969;28;20100;-69
2023/01/02 06:17:20;;;;;;;41.92;19.15;;;;;;;2.65;78.47;101177.84;3171404;28;20051;-69
2023/01/02 06:18:52;;;;;;;40.90;19.30;;;;;;;2.75;78.46;101173.63;3160960;28;20054;-69
2023/01/02 06:20:24;;;;;;;39.08;19.58;;;;;;;2.86;78.50;101171.16;3158227;28;20052;-69
2023/01/02 06:21:56;;;;;;;38.55;18.42;;;;;;;2.97;78.65;101175.56;3167341;28;20059;-68
2023/01/02 06:23:28;;;;;;;36.65;18.23;;;;;;;3.05;78.74;101167.03;3170873;28;20198;-69
2023/01/02 06:25:00;;;;;;;40.30;19.40;;;;;;;3.23;78.61;101185.19;3162424;28;20048;-69
2023/01/02 06:26:33;;;;;;;41.92;19.77;;;;;;;3.37;78.76;101174.97;3157687;28;20044;-69
2023/01/02 06:28:05;;;;;;;40.45;19.38;;;;;;;3.52;78.51;101180.22;3158088;28;20441;-69
2023/01/02 06:29:37;;;;;;;40.97;19.90;;;;;;;3.65;78.44;101181.16;3157890;28;20048;-69
2023/01/02 06:31:10;;;;;;;38.95;18.45;;;;;;;3.79;78.39;101189.81;3163323;28;20051;-69
2023/01/02 06:32:42;;;;;;;45.88;19.65;;;;;;;3.93;78.19;101184.72;3162713;28;20049;-69
2023/01/02 06:34:16;;;;;;;35.90;17.33;;;;;;;4.06;78.11;101183.06;3157897;28;20102;-69
2023/01/02 06:35:48;;;;;;;36.55;17.83;;;;;;;4.08;77.91;101171.91;3156531;28;20517;-69
2023/01/02 06:37:20;;;;;;;31.38;16.88;;;;;;;4.30;77.60;101183.13;3160679;28;20081;-69
2023/01/02 06:38:52;;;;;;;31.67;16.20;;;;;;;4.43;77.37;101184.00;3168130;28;20056;-69
2023/01/02 06:40:23;;;;;;;34.22;16.02;;;;;;;4.56;77.23;101185.78;3153991;28;20492;-69
2023/01/02 06:41:57;;;;;;;29.42;14.75;;;;;;;4.71;77.01;101184.06;3157836;28;20047;-68
2023/01/02 06:43:29;;;;;;;32.97;15.98;;;;;;;4.86;76.71;101188.38;3157827;28;20109;-67
2023/01/02 06:45:01;;;;;;;30.58;15.40;;;;;;;4.98;76.57;101196.97;3170395;28;20050;-67
2023/01/02 06:46:32;;;;;;;27.90;15.48;;;;;;;5.13;76.32;101192.69;3164401;28;20048;-67
2023/01/02 06:48:05;;;;;;;34.15;16.73;;;;;;;5.28;76.29;101191.81;3157486;28;20414;-67
2023/01/02 06:49:37;;;;;;;34.63;16.33;;;;;;;5.43;76.11;101195.22;3166611;28;20428;-67
2023/01/02 06:51:10;;;;;;;30.90;15.60;;;;;;;5.52;75.86;101196.94;3165343;28;20833;-68
2023/01/02 06:52:42;;;;;;;32.83;17.48;;;;;;;5.68;75.54;101198.63;3157767;28;20143;-67
2023/01/02 06:54:14;;;;;;;32.92;15.55;;;;;;;5.82;75.13;101208.06;3166508;28;20047;-67
2023/01/02 06:55:51;;;;;;;26.88;14.43;;;;;;;5.94;74.83;101208.03;3161493;28;20044;-67
2023/01/02 06:57:25;;;;;;;30.58;15.20;;;;;;;6.02;74.57;101197.69;3157493;28;20466;-68
2023/01/02 06:58:58;;;;;;;32.60;15.38;;;;;;;6.22;74.12;101219.16;3151078;28;20055;-67
2023/01/02 07:00:31;;;;;;;34.00;14.55;;;;;;;6.36;73.77;101219.09;3151450;28;20082;-68
2023/01/02 07:02:03;;;;;;;32.53;14.30;;;;;;;6.48;73.31;101224.19;3163454;28;20051;-67
2023/01/02 07:03:34;;;;;;;30.60;14.85;;;;;;;6.62;72.73;101221.50;3170167;28;20461;-67
2023/01/02 07:05:07;;;;;;;35.22;16.70;;;;;;;6.78;72.43;101214.53;3160868;28;20042;-68
2023/01/02 07:06:39;;;;;;;35.83;16.13;;;;;;;6.88;72.23;101210.13;3157270;28;20116;-68
2023/01/02 07:08:12;;;;;;;27.50;14.55;;;;;;;7.12;71.88;101227.22;3155804;28;20075;-67
2023/01/02 07:09:43;;;;;;;23.30;13.82;;;;;;;7.29;71.26;101231.38;3148543;28;20049;-68
2023/01/02 07:11:18;;;;;;;23.75;12.30;;;;;;;7.47;70.64;101230.34;3157513;28;20048;-68
2023/01/02 07:12:51;;;;;;;26.15;12.63;;;;;;;7.58;70.21;101217.28;3157135;28;20153;-68
2023/01/02 07:14:23;;;;;;;21.42;12.57;;;;;;;7.88;69.92;101233.41;3155789;28;20051;-67
2023/01/02 07:15:55;;;;;;;23.33;12.27;;;;;;;8.09;69.09;101233.13;3170344;28;20442;-67
2023/01/02 07:17:26;;;;;;;26.00;12.75;;;;;;;8.17;67.63;101220.09;3169670;28;20070;-68